Home   Weather   Iraq   Baghdad   Past weeks
Flag for Iraq

Past Weather in Baghdad, Iraq — Yesterday and Last 2 Weeks

Currently: 100 °F. Sunny. (Weather station: Ilam, Iraq). See more current weather

Past Weather in Baghdad — Graph

°F

Baghdad Temperature Yesterday

Maximum temperature yesterday: 108 °F (at 2:30 pm)
Minimum temperature yesterday: 79 °F (at 5:00 am)
Average temperature yesterday: 96 °F

High & Low Weather Summary for the Past Weeks

 TemperatureHumidityPressure
High108 °F (Jul 26, 2:30 pm)38% (Jul 23, 1:00 am)29.98 "Hg (Jul 23, 1:00 am)
Low68 °F (Jul 16, 5:00 am)12% (Jul 12, 11:00 am)29.74 "Hg (Jul 13, 4:00 pm)
Average89 °F18%29.87 "Hg
* Reported Jul 12 9:00 am — Jul 27 9:00 am, Baghdad. Weather by CustomWeather, © 2021

Note: Actual official high and low records may vary slightly from our data, if they occured in-between our weather recording intervals... More about our weather records

Baghdad Weather History for the Previous 24 Hours

Scroll right to see more
 ConditionsComfort  
Time TempWeatherWind HumidityBarometerVisibility
9:00 am
Tue, Jul 27
100 °FSunny.9 mph13%29.89 "Hg10 mi
8:00 am97 °FSunny.7 mph13%29.89 "Hg10 mi
7:00 am95 °FPassing clouds.5 mph12%29.89 "HgN/A
6:30 am91 °FPassing clouds.2 mph13%29.89 "HgN/A
6:00 am90 °FPassing clouds.5 mph13%29.89 "HgN/A
5:30 am88 °FClear.5 mph15%29.89 "Hg10 mi
5:00 am82 °FClear.5 mph16%29.89 "Hg10 mi
4:00 am86 °FClear.2 mph17%29.89 "Hg10 mi
3:00 am88 °FClear.2 mph16%29.89 "Hg10 mi
2:00 am86 °FClear.5 mph18%29.92 "Hg10 mi
1:00 am91 °FClear.9 mph15%29.92 "Hg10 mi
12:00 am91 °FClear.12 mph15%29.92 "Hg10 mi
11:00 pm
Mon, Jul 26
93 °FClear.12 mph15%29.92 "Hg10 mi
10:00 pm93 °FClear.9 mph15%29.95 "Hg10 mi
9:00 pm95 °FPassing clouds.14 mph15%29.95 "HgN/A
8:00 pm95 °FPassing clouds.12 mph15%29.92 "HgN/A
7:00 pm99 °FPassing clouds.14 mph13%29.92 "HgN/A
6:00 pm102 °FPassing clouds.16 mph12%29.89 "HgN/A
5:00 pm106 °FPassing clouds.14 mph13%29.89 "HgN/A
4:00 pm106 °FPassing clouds.14 mph13%29.89 "HgN/A
3:00 pm108 °FPassing clouds.5 mph13%29.92 "HgN/A
2:30 pm108 °FPassing clouds.7 mph13%29.92 "HgN/A
2:00 pm106 °FSunny.7 mph13%29.95 "Hg10 mi
1:00 pm106 °FSunny.9 mph13%29.95 "Hg10 mi
12:30 pm106 °FSunny.7 mph13%29.95 "Hg10 mi
12:00 pm106 °FSunny.2 mph13%29.98 "Hg10 mi
11:00 am104 °FSunny.7 mph12%29.98 "Hg10 mi
10:00 am102 °FSunny.5 mph12%29.98 "Hg10 mi
9:00 am100 °FSunny.2 mph13%29.95 "Hg10 mi
Weather by CustomWeather, © 2021

See weather overview